sensor_id;sensor_type;location;lat;lon;timestamp;temperature;humidity
39601;DHT22;25297;44.758;11.310;2023-04-03T00:01:05;12.30;97.30
39601;DHT22;25297;44.758;11.310;2023-04-03T00:03:31;12.20;97.30
39601;DHT22;25297;44.758;11.310;2023-04-03T00:05:57;12.20;97.20
39601;DHT22;25297;44.758;11.310;2023-04-03T00:08:23;12.10;97.00
39601;DHT22;25297;44.758;11.310;2023-04-03T00:10:49;12.10;97.20
39601;DHT22;25297;44.758;11.310;2023-04-03T00:13:16;12.00;97.30
39601;DHT22;25297;44.758;11.310;2023-04-03T00:15:42;12.00;97.40
39601;DHT22;25297;44.758;11.310;2023-04-03T00:18:08;12.00;97.50
39601;DHT22;25297;44.758;11.310;2023-04-03T00:20:33;11.90;97.40
39601;DHT22;25297;44.758;11.310;2023-04-03T00:23:00;11.90;97.40
39601;DHT22;25297;44.758;11.310;2023-04-03T00:25:26;11.90;97.50
39601;DHT22;25297;44.758;11.310;2023-04-03T00:27:52;11.90;97.40
39601;DHT22;25297;44.758;11.310;2023-04-03T00:30:19;11.80;97.20
39601;DHT22;25297;44.758;11.310;2023-04-03T00:32:48;11.80;97.10
39601;DHT22;25297;44.758;11.310;2023-04-03T00:35:13;11.80;96.90
39601;DHT22;25297;44.758;11.310;2023-04-03T00:37:41;11.80;96.90
39601;DHT22;25297;44.758;11.310;2023-04-03T00:40:08;11.80;96.80
39601;DHT22;25297;44.758;11.310;2023-04-03T00:42:36;11.80;96.90
39601;DHT22;25297;44.758;11.310;2023-04-03T00:47:28;11.80;97.00
39601;DHT22;25297;44.758;11.310;2023-04-03T00:49:55;11.90;96.90
39601;DHT22;25297;44.758;11.310;2023-04-03T00:52:23;11.90;96.90
39601;DHT22;25297;44.758;11.310;2023-04-03T00:54:52;11.90;96.90
39601;DHT22;25297;44.758;11.310;2023-04-03T00:57:21;11.90;96.80
39601;DHT22;25297;44.758;11.310;2023-04-03T00:59:51;11.90;96.90
39601;DHT22;25297;44.758;11.310;2023-04-03T01:02:20;11.90;97.00
39601;DHT22;25297;44.758;11.310;2023-04-03T01:04:45;11.90;97.10
39601;DHT22;25297;44.758;11.310;2023-04-03T01:07:16;11.90;97.20
39601;DHT22;25297;44.758;11.310;2023-04-03T01:09:42;11.90;97.20
39601;DHT22;25297;44.758;11.310;2023-04-03T01:12:20;12.00;97.20
39601;DHT22;25297;44.758;11.310;2023-04-03T01:14:48;12.00;97.40
39601;DHT22;25297;44.758;11.310;2023-04-03T01:25:26;12.20;97.20
39601;DHT22;25297;44.758;11.310;2023-04-03T01:27:53;12.20;97.10
39601;DHT22;25297;44.758;11.310;2023-04-03T01:30:20;12.20;97.10
39601;DHT22;25297;44.758;11.310;2023-04-03T01:32:46;12.20;97.20
39601;DHT22;25297;44.758;11.310;2023-04-03T01:35:12;12.10;97.20
39601;DHT22;25297;44.758;11.310;2023-04-03T01:37:38;12.10;97.10
39601;DHT22;25297;44.758;11.310;2023-04-03T01:40:04;12.10;97.10
39601;DHT22;25297;44.758;11.310;2023-04-03T01:42:31;12.00;97.10
39601;DHT22;25297;44.758;11.310;2023-04-03T01:44:56;12.00;97.30
39601;DHT22;25297;44.758;11.310;2023-04-03T01:47:22;12.00;97.30
39601;DHT22;25297;44.758;11.310;2023-04-03T01:49:47;11.90;97.30
39601;DHT22;25297;44.758;11.310;2023-04-03T01:52:13;11.90;97.40
39601;DHT22;25297;44.758;11.310;2023-04-03T01:54:39;11.90;97.50
39601;DHT22;25297;44.758;11.310;2023-04-03T01:57:05;11.80;97.40
39601;DHT22;25297;44.758;11.310;2023-04-03T01:59:30;11.90;97.50
39601;DHT22;25297;44.758;11.310;2023-04-03T02:01:56;11.90;97.60
39601;DHT22;25297;44.758;11.310;2023-04-03T02:04:22;11.80;97.60
39601;DHT22;25297;44.758;11.310;2023-04-03T02:06:48;11.80;97.60
39601;DHT22;25297;44.758;11.310;2023-04-03T02:09:14;11.80;97.60
39601;DHT22;25297;44.758;11.310;2023-04-03T02:11:39;11.70;97.70
39601;DHT22;25297;44.758;11.310;2023-04-03T02:14:05;11.70;98.00
39601;DHT22;25297;44.758;11.310;2023-04-03T02:16:31;11.70;98.40
39601;DHT22;25297;44.758;11.310;2023-04-03T02:18:57;11.80;98.40
39601;DHT22;25297;44.758;11.310;2023-04-03T02:21:23;11.90;98.60
39601;DHT22;25297;44.758;11.310;2023-04-03T02:23:48;12.00;98.50
39601;DHT22;25297;44.758;11.310;2023-04-03T02:26:15;12.00;97.90
39601;DHT22;25297;44.758;11.310;2023-04-03T02:28:41;12.10;97.50
39601;DHT22;25297;44.758;11.310;2023-04-03T02:31:08;12.10;97.40
39601;DHT22;25297;44.758;11.310;2023-04-03T02:33:34;12.20;97.10
39601;DHT22;25297;44.758;11.310;2023-04-03T02:36:03;12.10;96.60
39601;DHT22;25297;44.758;11.310;2023-04-03T02:38:28;12.10;96.70
39601;DHT22;25297;44.758;11.310;2023-04-03T02:41:03;12.10;96.50
39601;DHT22;25297;44.758;11.310;2023-04-03T02:43:29;12.10;96.30
39601;DHT22;25297;44.758;11.310;2023-04-03T02:45:55;12.10;96.40
39601;DHT22;25297;44.758;11.310;2023-04-03T02:48:20;12.00;96.40
39601;DHT22;25297;44.758;11.310;2023-04-03T02:50:46;12.00;96.40
39601;DHT22;25297;44.758;11.310;2023-04-03T02:53:11;12.00;96.30
39601;DHT22;25297;44.758;11.310;2023-04-03T02:55:37;12.10;96.20
39601;DHT22;25297;44.758;11.310;2023-04-03T02:58:03;12.10;96.10
39601;DHT22;25297;44.758;11.310;2023-04-03T03:00:29;12.10;95.80
39601;DHT22;25297;44.758;11.310;2023-04-03T03:02:55;12.10;95.50
39601;DHT22;25297;44.758;11.310;2023-04-03T03:05:21;12.10;95.10
39601;DHT22;25297;44.758;11.310;2023-04-03T03:07:47;12.00;94.80
39601;DHT22;25297;44.758;11.310;2023-04-03T03:10:14;11.90;94.50
39601;DHT22;25297;44.758;11.310;2023-04-03T03:12:40;11.80;94.50
39601;DHT22;25297;44.758;11.310;2023-04-03T03:15:06;11.80;94.70
39601;DHT22;25297;44.758;11.310;2023-04-03T03:17:32;11.70;94.70
39601;DHT22;25297;44.758;11.310;2023-04-03T03:19:58;11.70;94.60
39601;DHT22;25297;44.758;11.310;2023-04-03T03:22:23;11.60;94.70
39601;DHT22;25297;44.758;11.310;2023-04-03T03:24:49;11.60;94.90
39601;DHT22;25297;44.758;11.310;2023-04-03T03:27:15;11.60;95.20
39601;DHT22;25297;44.758;11.310;2023-04-03T03:29:42;11.60;95.20
39601;DHT22;25297;44.758;11.310;2023-04-03T03:32:07;11.60;94.90
39601;DHT22;25297;44.758;11.310;2023-04-03T03:34:33;11.50;95.10
39601;DHT22;25297;44.758;11.310;2023-04-03T03:36:59;11.60;95.20
39601;DHT22;25297;44.758;11.310;2023-04-03T03:39:25;11.50;95.10
39601;DHT22;25297;44.758;11.310;2023-04-03T03:41:51;11.50;95.20
39601;DHT22;25297;44.758;11.310;2023-04-03T03:44:19;11.60;95.30
39601;DHT22;25297;44.758;11.310;2023-04-03T03:46:44;11.50;95.20
39601;DHT22;25297;44.758;11.310;2023-04-03T03:49:10;11.50;95.20
39601;DHT22;25297;44.758;11.310;2023-04-03T03:51:37;11.40;95.30
39601;DHT22;25297;44.758;11.310;2023-04-03T03:54:03;11.40;95.40
39601;DHT22;25297;44.758;11.310;2023-04-03T03:56:29;11.40;95.40
39601;DHT22;25297;44.758;11.310;2023-04-03T03:58:55;11.40;95.40
39601;DHT22;25297;44.758;11.310;2023-04-03T04:01:23;11.30;95.20
39601;DHT22;25297;44.758;11.310;2023-04-03T04:03:48;11.20;95.20
39601;DHT22;25297;44.758;11.310;2023-04-03T04:06:15;11.20;95.40
39601;DHT22;25297;44.758;11.310;2023-04-03T04:08:41;11.20;95.80
39601;DHT22;25297;44.758;11.310;2023-04-03T04:11:07;11.30;95.80
39601;DHT22;25297;44.758;11.310;2023-04-03T04:13:33;11.30;95.40
39601;DHT22;25297;44.758;11.310;2023-04-03T04:15:58;11.30;95.30
39601;DHT22;25297;44.758;11.310;2023-04-03T04:18:24;11.20;95.30
39601;DHT22;25297;44.758;11.310;2023-04-03T04:20:50;11.20;95.40
39601;DHT22;25297;44.758;11.310;2023-04-03T04:23:17;11.30;95.50
39601;DHT22;25297;44.758;11.310;2023-04-03T04:25:47;11.30;95.40
39601;DHT22;25297;44.758;11.310;2023-04-03T04:28:14;11.30;95.40
39601;DHT22;25297;44.758;11.310;2023-04-03T04:30:39;11.30;95.10
39601;DHT22;25297;44.758;11.310;2023-04-03T04:33:05;11.30;94.90
39601;DHT22;25297;44.758;11.310;2023-04-03T04:35:31;11.20;95.00
39601;DHT22;25297;44.758;11.310;2023-04-03T04:37:56;11.30;95.10
39601;DHT22;25297;44.758;11.310;2023-04-03T04:40:22;11.20;95.20
39601;DHT22;25297;44.758;11.310;2023-04-03T04:42:48;11.30;95.30
39601;DHT22;25297;44.758;11.310;2023-04-03T04:45:13;11.30;95.30
39601;DHT22;25297;44.758;11.310;2023-04-03T04:47:40;11.40;95.20
39601;DHT22;25297;44.758;11.310;2023-04-03T04:50:06;11.40;95.20
39601;DHT22;25297;44.758;11.310;2023-04-03T04:52:32;11.50;95.00
39601;DHT22;25297;44.758;11.310;2023-04-03T04:54:58;11.40;94.90
39601;DHT22;25297;44.758;11.310;2023-04-03T04:57:23;11.40;95.00
39601;DHT22;25297;44.758;11.310;2023-04-03T04:59:49;11.50;95.20
39601;DHT22;25297;44.758;11.310;2023-04-03T05:02:15;11.60;95.10
39601;DHT22;25297;44.758;11.310;2023-04-03T05:04:40;11.60;95.00
39601;DHT22;25297;44.758;11.310;2023-04-03T05:07:06;11.80;94.90
39601;DHT22;25297;44.758;11.310;2023-04-03T05:09:32;11.80;94.70
39601;DHT22;25297;44.758;11.310;2023-04-03T05:11:57;11.90;94.50
39601;DHT22;25297;44.758;11.310;2023-04-03T05:14:23;12.00;94.20
39601;DHT22;25297;44.758;11.310;2023-04-03T05:16:49;12.00;93.70
39601;DHT22;25297;44.758;11.310;2023-04-03T05:19:18;12.00;93.20
39601;DHT22;25297;44.758;11.310;2023-04-03T05:21:44;11.80;93.10
39601;DHT22;25297;44.758;11.310;2023-04-03T05:24:10;11.70;93.30
39601;DHT22;25297;44.758;11.310;2023-04-03T05:26:35;11.60;93.50
39601;DHT22;25297;44.758;11.310;2023-04-03T05:29:01;11.60;93.40
39601;DHT22;25297;44.758;11.310;2023-04-03T05:31:27;11.50;93.30
39601;DHT22;25297;44.758;11.310;2023-04-03T05:33:55;11.40;93.60
39601;DHT22;25297;44.758;11.310;2023-04-03T05:36:21;11.40;94.20
39601;DHT22;25297;44.758;11.310;2023-04-03T05:38:48;11.40;94.60
39601;DHT22;25297;44.758;11.310;2023-04-03T05:41:14;11.50;94.70
39601;DHT22;25297;44.758;11.310;2023-04-03T05:43:40;11.50;95.00
39601;DHT22;25297;44.758;11.310;2023-04-03T05:46:13;11.60;95.20
39601;DHT22;25297;44.758;11.310;2023-04-03T05:48:40;11.70;95.60
39601;DHT22;25297;44.758;11.310;2023-04-03T05:51:06;11.70;95.50
39601;DHT22;25297;44.758;11.310;2023-04-03T05:53:35;11.70;95.40
39601;DHT22;25297;44.758;11.310;2023-04-03T05:56:04;11.70;95.40
39601;DHT22;25297;44.758;11.310;2023-04-03T05:58:30;11.70;95.60
39601;DHT22;25297;44.758;11.310;2023-04-03T06:00:56;11.70;95.60
39601;DHT22;25297;44.758;11.310;2023-04-03T06:03:22;11.70;95.60
39601;DHT22;25297;44.758;11.310;2023-04-03T06:05:48;11.70;95.60
39601;DHT22;25297;44.758;11.310;2023-04-03T06:08:13;11.70;95.60
39601;DHT22;25297;44.758;11.310;2023-04-03T06:10:40;11.60;95.70
39601;DHT22;25297;44.758;11.310;2023-04-03T06:13:05;11.60;95.90
39601;DHT22;25297;44.758;11.310;2023-04-03T06:15:31;11.70;96.30
39601;DHT22;25297;44.758;11.310;2023-04-03T06:17:57;11.60;96.60
39601;DHT22;25297;44.758;11.310;2023-04-03T06:20:22;11.70;96.80
39601;DHT22;25297;44.758;11.310;2023-04-03T06:22:48;11.70;97.00
39601;DHT22;25297;44.758;11.310;2023-04-03T06:25:14;11.70;97.30
39601;DHT22;25297;44.758;11.310;2023-04-03T06:27:42;11.80;97.60
39601;DHT22;25297;44.758;11.310;2023-04-03T06:30:08;11.80;98.00
39601;DHT22;25297;44.758;11.310;2023-04-03T06:32:34;11.90;98.30
39601;DHT22;25297;44.758;11.310;2023-04-03T06:35:00;12.00;98.70
39601;DHT22;25297;44.758;11.310;2023-04-03T06:37:25;12.00;99.00
39601;DHT22;25297;44.758;11.310;2023-04-03T06:39:53;12.10;99.40
39601;DHT22;25297;44.758;11.310;2023-04-03T06:42:19;12.20;99.70
39601;DHT22;25297;44.758;11.310;2023-04-03T06:44:44;12.20;99.80
39601;DHT22;25297;44.758;11.310;2023-04-03T06:47:13;12.30;99.90
39601;DHT22;25297;44.758;11.310;2023-04-03T06:49:39;12.40;99.90
39601;DHT22;25297;44.758;11.310;2023-04-03T06:52:04;12.40;99.90
39601;DHT22;25297;44.758;11.310;2023-04-03T06:54:31;12.60;99.90
39601;DHT22;25297;44.758;11.310;2023-04-03T06:56:57;12.60;99.90
39601;DHT22;25297;44.758;11.310;2023-04-03T06:59:23;12.80;99.90
39601;DHT22;25297;44.758;11.310;2023-04-03T07:01:48;12.90;99.90
39601;DHT22;25297;44.758;11.310;2023-04-03T07:04:14;13.00;99.90
39601;DHT22;25297;44.758;11.310;2023-04-03T07:06:40;13.10;99.90
39601;DHT22;25297;44.758;11.310;2023-04-03T07:09:07;13.20;99.90
39601;DHT22;25297;44.758;11.310;2023-04-03T07:11:33;13.30;99.90
39601;DHT22;25297;44.758;11.310;2023-04-03T07:13:58;13.50;99.90
39601;DHT22;25297;44.758;11.310;2023-04-03T07:16:24;13.60;99.90
39601;DHT22;25297;44.758;11.310;2023-04-03T07:18:50;13.80;99.90
39601;DHT22;25297;44.758;11.310;2023-04-03T07:21:16;13.90;99.90
39601;DHT22;25297;44.758;11.310;2023-04-03T07:23:42;14.00;99.90
39601;DHT22;25297;44.758;11.310;2023-04-03T07:26:08;14.10;99.90
39601;DHT22;25297;44.758;11.310;2023-04-03T07:28:34;14.20;99.90
39601;DHT22;25297;44.758;11.310;2023-04-03T07:31:06;14.30;99.90
39601;DHT22;25297;44.758;11.310;2023-04-03T07:33:34;14.40;99.90
39601;DHT22;25297;44.758;11.310;2023-04-03T07:36:01;14.50;99.90
39601;DHT22;25297;44.758;11.310;2023-04-03T07:38:27;14.50;99.90
39601;DHT22;25297;44.758;11.310;2023-04-03T07:40:53;14.60;99.90
39601;DHT22;25297;44.758;11.310;2023-04-03T07:43:20;14.70;99.90
39601;DHT22;25297;44.758;11.310;2023-04-03T07:45:46;14.80;99.90
39601;DHT22;25297;44.758;11.310;2023-04-03T07:48:20;14.90;99.90
39601;DHT22;25297;44.758;11.310;2023-04-03T07:50:45;14.90;99.90
39601;DHT22;25297;44.758;11.310;2023-04-03T07:53:11;15.00;99.90
39601;DHT22;25297;44.758;11.310;2023-04-03T07:55:37;15.10;99.90
39601;DHT22;25297;44.758;11.310;2023-04-03T07:58:12;15.20;99.90
39601;DHT22;25297;44.758;11.310;2023-04-03T08:00:40;15.30;99.90
39601;DHT22;25297;44.758;11.310;2023-04-03T08:03:07;15.30;99.90
39601;DHT22;25297;44.758;11.310;2023-04-03T08:05:41;15.40;99.70
39601;DHT22;25297;44.758;11.310;2023-04-03T08:08:08;15.40;99.30
39601;DHT22;25297;44.758;11.310;2023-04-03T08:10:34;15.50;98.80
39601;DHT22;25297;44.758;11.310;2023-04-03T08:13:00;15.50;98.70
39601;DHT22;25297;44.758;11.310;2023-04-03T08:15:26;15.60;98.40
39601;DHT22;25297;44.758;11.310;2023-04-03T08:17:53;15.60;98.10
39601;DHT22;25297;44.758;11.310;2023-04-03T08:20:18;15.70;98.20
39601;DHT22;25297;44.758;11.310;2023-04-03T08:22:44;15.70;98.20
39601;DHT22;25297;44.758;11.310;2023-04-03T08:25:10;15.70;98.00
39601;DHT22;25297;44.758;11.310;2023-04-03T08:27:36;15.80;97.40
39601;DHT22;25297;44.758;11.310;2023-04-03T08:30:02;15.80;97.20
39601;DHT22;25297;44.758;11.310;2023-04-03T08:32:29;15.80;97.20
39601;DHT22;25297;44.758;11.310;2023-04-03T08:34:55;15.80;97.30
39601;DHT22;25297;44.758;11.310;2023-04-03T08:37:21;15.90;97.30
39601;DHT22;25297;44.758;11.310;2023-04-03T08:39:46;15.90;97.60
39601;DHT22;25297;44.758;11.310;2023-04-03T08:42:37;16.00;97.90
39601;DHT22;25297;44.758;11.310;2023-04-03T08:48:06;16.20;97.00
39601;DHT22;25297;44.758;11.310;2023-04-03T08:50:51;16.20;95.30
39601;DHT22;25297;44.758;11.310;2023-04-03T08:53:21;16.30;94.50
39601;DHT22;25297;44.758;11.310;2023-04-03T08:55:49;16.30;93.40
39601;DHT22;25297;44.758;11.310;2023-04-03T08:58:16;16.40;92.80
39601;DHT22;25297;44.758;11.310;2023-04-03T09:00:57;16.40;90.80
39601;DHT22;25297;44.758;11.310;2023-04-03T09:03:23;16.40;91.00
39601;DHT22;25297;44.758;11.310;2023-04-03T09:05:53;16.50;91.20
39601;DHT22;25297;44.758;11.310;2023-04-03T09:08:27;16.50;90.90
39601;DHT22;25297;44.758;11.310;2023-04-03T09:11:17;16.60;89.70
39601;DHT22;25297;44.758;11.310;2023-04-03T09:14:01;16.70;86.90
39601;DHT22;25297;44.758;11.310;2023-04-03T09:21:39;16.80;84.00
39601;DHT22;25297;44.758;11.310;2023-04-03T09:24:10;16.80;82.60
39601;DHT22;25297;44.758;11.310;2023-04-03T09:26:53;16.80;80.70
39601;DHT22;25297;44.758;11.310;2023-04-03T09:29:23;16.80;80.30
39601;DHT22;25297;44.758;11.310;2023-04-03T09:32:34;16.80;81.60
39601;DHT22;25297;44.758;11.310;2023-04-03T09:34:41;16.80;81.90
39601;DHT22;25297;44.758;11.310;2023-04-03T09:37:07;16.90;80.20
39601;DHT22;25297;44.758;11.310;2023-04-03T09:39:52;16.90;80.00
39601;DHT22;25297;44.758;11.310;2023-04-03T09:42:23;16.90;79.20
39601;DHT22;25297;44.758;11.310;2023-04-03T09:44:59;17.00;77.70
39601;DHT22;25297;44.758;11.310;2023-04-03T09:47:35;17.00;77.60
39601;DHT22;25297;44.758;11.310;2023-04-03T09:52:46;17.00;77.80
39601;DHT22;25297;44.758;11.310;2023-04-03T09:55:16;17.00;78.80
39601;DHT22;25297;44.758;11.310;2023-04-03T09:57:43;17.10;76.40
39601;DHT22;25297;44.758;11.310;2023-04-03T10:02:54;17.10;77.30
39601;DHT22;25297;44.758;11.310;2023-04-03T10:05:36;17.10;75.20
39601;DHT22;25297;44.758;11.310;2023-04-03T10:10:36;17.20;76.80
39601;DHT22;25297;44.758;11.310;2023-04-03T10:13:20;17.30;76.70
39601;DHT22;25297;44.758;11.310;2023-04-03T10:16:07;17.30;75.30
39601;DHT22;25297;44.758;11.310;2023-04-03T10:21:29;17.30;75.20
39601;DHT22;25297;44.758;11.310;2023-04-03T10:26:39;17.40;75.10
39601;DHT22;25297;44.758;11.310;2023-04-03T10:40:52;17.30;84.00
39601;DHT22;25297;44.758;11.310;2023-04-03T10:43:44;17.20;85.40
39601;DHT22;25297;44.758;11.310;2023-04-03T10:54:59;16.90;85.70
39601;DHT22;25297;44.758;11.310;2023-04-03T10:57:28;16.80;86.60
39601;DHT22;25297;44.758;11.310;2023-04-03T11:00:02;16.80;86.80
39601;DHT22;25297;44.758;11.310;2023-04-03T11:02:50;16.70;85.20
39601;DHT22;25297;44.758;11.310;2023-04-03T11:05:45;16.70;82.40
39601;DHT22;25297;44.758;11.310;2023-04-03T11:08:38;16.60;80.80
39601;DHT22;25297;44.758;11.310;2023-04-03T11:14:31;16.60;81.00
39601;DHT22;25297;44.758;11.310;2023-04-03T11:20:10;16.70;79.80
39601;DHT22;25297;44.758;11.310;2023-04-03T11:22:42;16.90;79.80
39601;DHT22;25297;44.758;11.310;2023-04-03T11:27:55;16.80;79.10
39601;DHT22;25297;44.758;11.310;2023-04-03T11:30:30;16.90;78.50
39601;DHT22;25297;44.758;11.310;2023-04-03T11:33:25;16.90;78.90
39601;DHT22;25297;44.758;11.310;2023-04-03T11:36:00;16.90;79.00
39601;DHT22;25297;44.758;11.310;2023-04-03T11:38:31;16.90;78.80
39601;DHT22;25297;44.758;11.310;2023-04-03T11:41:04;16.90;78.80
39601;DHT22;25297;44.758;11.310;2023-04-03T11:43:32;16.90;78.60
39601;DHT22;25297;44.758;11.310;2023-04-03T11:46:06;17.00;79.40
39601;DHT22;25297;44.758;11.310;2023-04-03T11:53:40;17.00;77.20
39601;DHT22;25297;44.758;11.310;2023-04-03T12:01:57;17.10;77.90
39601;DHT22;25297;44.758;11.310;2023-04-03T12:04:25;17.10;78.30
39601;DHT22;25297;44.758;11.310;2023-04-03T12:07:14;17.20;78.90
39601;DHT22;25297;44.758;11.310;2023-04-03T12:12:37;17.30;77.70
39601;DHT22;25297;44.758;11.310;2023-04-03T12:15:21;17.30;77.20
39601;DHT22;25297;44.758;11.310;2023-04-03T12:17:47;17.40;77.30
39601;DHT22;25297;44.758;11.310;2023-04-03T12:23:33;17.50;69.50
39601;DHT22;25297;44.758;11.310;2023-04-03T12:26:03;17.50;66.00
39601;DHT22;25297;44.758;11.310;2023-04-03T12:28:36;17.50;65.00
39601;DHT22;25297;44.758;11.310;2023-04-03T12:31:04;17.60;64.70
39601;DHT22;25297;44.758;11.310;2023-04-03T12:33:58;17.60;64.70
39601;DHT22;25297;44.758;11.310;2023-04-03T12:45:23;17.80;64.00
39601;DHT22;25297;44.758;11.310;2023-04-03T12:47:52;17.80;63.10
39601;DHT22;25297;44.758;11.310;2023-04-03T12:50:29;17.80;61.60
39601;DHT22;25297;44.758;11.310;2023-04-03T12:53:10;17.90;61.40
39601;DHT22;25297;44.758;11.310;2023-04-03T12:55:37;17.90;60.60
39601;DHT22;25297;44.758;11.310;2023-04-03T12:58:23;17.90;60.20
39601;DHT22;25297;44.758;11.310;2023-04-03T13:01:03;17.90;59.80
39601;DHT22;25297;44.758;11.310;2023-04-03T13:03:30;17.90;60.70
39601;DHT22;25297;44.758;11.310;2023-04-03T13:05:59;18.00;60.60
39601;DHT22;25297;44.758;11.310;2023-04-03T13:08:26;18.00;60.70
39601;DHT22;25297;44.758;11.310;2023-04-03T13:10:53;18.00;59.70
39601;DHT22;25297;44.758;11.310;2023-04-03T13:13:19;18.10;58.80
39601;DHT22;25297;44.758;11.310;2023-04-03T13:15:48;18.10;58.40
39601;DHT22;25297;44.758;11.310;2023-04-03T13:18:40;18.10;58.70
39601;DHT22;25297;44.758;11.310;2023-04-03T13:23:41;18.20;59.90
39601;DHT22;25297;44.758;11.310;2023-04-03T13:26:08;18.10;58.10
39601;DHT22;25297;44.758;11.310;2023-04-03T13:28:35;18.30;58.10
39601;DHT22;25297;44.758;11.310;2023-04-03T13:33:30;18.30;58.10
39601;DHT22;25297;44.758;11.310;2023-04-03T13:36:03;18.30;57.00
39601;DHT22;25297;44.758;11.310;2023-04-03T13:38:31;18.30;57.70
39601;DHT22;25297;44.758;11.310;2023-04-03T13:41:01;18.40;57.30
39601;DHT22;25297;44.758;11.310;2023-04-03T13:43:31;18.30;57.40
39601;DHT22;25297;44.758;11.310;2023-04-03T13:48:42;18.40;56.70
39601;DHT22;25297;44.758;11.310;2023-04-03T14:04:25;18.50;56.80
39601;DHT22;25297;44.758;11.310;2023-04-03T14:06:52;18.40;56.20
39601;DHT22;25297;44.758;11.310;2023-04-03T14:09:19;18.50;55.00
39601;DHT22;25297;44.758;11.310;2023-04-03T14:11:46;18.50;55.50
39601;DHT22;25297;44.758;11.310;2023-04-03T14:14:15;18.40;55.30
39601;DHT22;25297;44.758;11.310;2023-04-03T14:16:44;18.40;56.00
39601;DHT22;25297;44.758;11.310;2023-04-03T14:19:28;18.40;57.10
39601;DHT22;25297;44.758;11.310;2023-04-03T14:21:56;18.40;57.60
39601;DHT22;25297;44.758;11.310;2023-04-03T14:24:22;18.40;57.40
39601;DHT22;25297;44.758;11.310;2023-04-03T14:26:50;18.30;58.30
39601;DHT22;25297;44.758;11.310;2023-04-03T14:29:16;18.30;57.80
39601;DHT22;25297;44.758;11.310;2023-04-03T14:31:44;18.30;58.40
39601;DHT22;25297;44.758;11.310;2023-04-03T14:34:11;18.30;57.10
39601;DHT22;25297;44.758;11.310;2023-04-03T14:36:38;18.20;54.80
39601;DHT22;25297;44.758;11.310;2023-04-03T14:39:06;18.20;54.00
39601;DHT22;25297;44.758;11.310;2023-04-03T14:41:33;18.20;55.00
39601;DHT22;25297;44.758;11.310;2023-04-03T14:43:58;18.20;55.00
39601;DHT22;25297;44.758;11.310;2023-04-03T14:46:39;18.20;54.70
39601;DHT22;25297;44.758;11.310;2023-04-03T14:49:19;18.20;54.50
39601;DHT22;25297;44.758;11.310;2023-04-03T14:51:45;18.20;53.00
39601;DHT22;25297;44.758;11.310;2023-04-03T14:54:15;18.10;53.80
39601;DHT22;25297;44.758;11.310;2023-04-03T14:56:42;18.10;54.30
39601;DHT22;25297;44.758;11.310;2023-04-03T14:59:14;18.10;54.80
39601;DHT22;25297;44.758;11.310;2023-04-03T15:01:41;18.20;54.30
39601;DHT22;25297;44.758;11.310;2023-04-03T15:04:12;18.10;54.10
39601;DHT22;25297;44.758;11.310;2023-04-03T15:06:38;18.20;53.70
39601;DHT22;25297;44.758;11.310;2023-04-03T15:09:04;18.20;54.00
39601;DHT22;25297;44.758;11.310;2023-04-03T15:11:29;18.10;54.30
39601;DHT22;25297;44.758;11.310;2023-04-03T15:13:55;18.10;54.50
39601;DHT22;25297;44.758;11.310;2023-04-03T15:16:21;18.10;54.40
39601;DHT22;25297;44.758;11.310;2023-04-03T15:18:47;18.10;54.80
39601;DHT22;25297;44.758;11.310;2023-04-03T15:21:13;18.20;54.50
39601;DHT22;25297;44.758;11.310;2023-04-03T15:23:39;18.20;53.50
39601;DHT22;25297;44.758;11.310;2023-04-03T15:26:05;18.10;53.90
39601;DHT22;25297;44.758;11.310;2023-04-03T15:28:34;18.10;53.20
39601;DHT22;25297;44.758;11.310;2023-04-03T15:31:01;18.10;52.60
39601;DHT22;25297;44.758;11.310;2023-04-03T15:33:27;18.00;52.50
39601;DHT22;25297;44.758;11.310;2023-04-03T15:35:53;18.00;53.20
39601;DHT22;25297;44.758;11.310;2023-04-03T15:38:19;17.90;54.40
39601;DHT22;25297;44.758;11.310;2023-04-03T15:40:44;18.00;53.90
39601;DHT22;25297;44.758;11.310;2023-04-03T15:43:12;18.00;53.50
39601;DHT22;25297;44.758;11.310;2023-04-03T15:45:38;17.90;54.50
39601;DHT22;25297;44.758;11.310;2023-04-03T15:48:05;17.90;54.60
39601;DHT22;25297;44.758;11.310;2023-04-03T15:50:32;17.90;55.10
39601;DHT22;25297;44.758;11.310;2023-04-03T15:52:58;17.90;55.00
39601;DHT22;25297;44.758;11.310;2023-04-03T15:55:25;17.90;54.90
39601;DHT22;25297;44.758;11.310;2023-04-03T15:57:52;17.80;55.50
39601;DHT22;25297;44.758;11.310;2023-04-03T16:00:18;17.90;54.00
39601;DHT22;25297;44.758;11.310;2023-04-03T16:02:46;17.80;52.10
39601;DHT22;25297;44.758;11.310;2023-04-03T16:05:13;17.80;53.10
39601;DHT22;25297;44.758;11.310;2023-04-03T16:07:41;17.80;53.60
39601;DHT22;25297;44.758;11.310;2023-04-03T16:10:08;17.80;54.20
39601;DHT22;25297;44.758;11.310;2023-04-03T16:12:34;17.80;53.90
39601;DHT22;25297;44.758;11.310;2023-04-03T16:15:00;17.80;54.20
39601;DHT22;25297;44.758;11.310;2023-04-03T16:17:27;17.80;54.20
39601;DHT22;25297;44.758;11.310;2023-04-03T16:19:54;17.80;54.10
39601;DHT22;25297;44.758;11.310;2023-04-03T16:22:21;17.80;54.90
39601;DHT22;25297;44.758;11.310;2023-04-03T16:24:47;17.70;54.20
39601;DHT22;25297;44.758;11.310;2023-04-03T16:27:12;17.70;55.00
39601;DHT22;25297;44.758;11.310;2023-04-03T16:29:38;17.70;55.10
39601;DHT22;25297;44.758;11.310;2023-04-03T16:32:04;17.70;55.60
39601;DHT22;25297;44.758;11.310;2023-04-03T16:34:30;17.70;55.10
39601;DHT22;25297;44.758;11.310;2023-04-03T16:36:57;17.70;54.80
39601;DHT22;25297;44.758;11.310;2023-04-03T16:39:23;17.70;55.50
39601;DHT22;25297;44.758;11.310;2023-04-03T16:41:49;17.70;56.10
39601;DHT22;25297;44.758;11.310;2023-04-03T16:44:14;17.70;55.90
39601;DHT22;25297;44.758;11.310;2023-04-03T16:46:40;17.70;55.90
39601;DHT22;25297;44.758;11.310;2023-04-03T16:49:06;17.70;56.40
39601;DHT22;25297;44.758;11.310;2023-04-03T16:51:31;17.60;55.80
39601;DHT22;25297;44.758;11.310;2023-04-03T16:53:57;17.60;56.00
39601;DHT22;25297;44.758;11.310;2023-04-03T16:56:24;17.60;56.30
39601;DHT22;25297;44.758;11.310;2023-04-03T16:58:52;17.60;56.30
39601;DHT22;25297;44.758;11.310;2023-04-03T17:01:20;17.50;56.50
39601;DHT22;25297;44.758;11.310;2023-04-03T17:03:46;17.50;56.80
39601;DHT22;25297;44.758;11.310;2023-04-03T17:06:15;17.40;56.30
39601;DHT22;25297;44.758;11.310;2023-04-03T17:08:43;17.40;56.70
39601;DHT22;25297;44.758;11.310;2023-04-03T17:11:09;17.40;56.70